sensor_id;sensor_type;location;lat;lon;timestamp;P1;durP1;ratioP1;P2;durP2;ratioP2
12848;SDS011;6493;50.928;7.172;2024-03-23T00:57:54;1.50;;;0.77;;
12848;SDS011;6493;50.928;7.172;2024-03-23T01:02:56;1.53;;;1.03;;
12848;SDS011;6493;50.928;7.172;2024-03-23T01:07:59;1.53;;;1.10;;
12848;SDS011;6493;50.928;7.172;2024-03-23T01:13:04;1.47;;;1.10;;
12848;SDS011;6493;50.928;7.172;2024-03-23T01:18:07;1.20;;;1.10;;
12848;SDS011;6493;50.928;7.172;2024-03-23T01:23:10;2.20;;;1.03;;
12848;SDS011;6493;50.928;7.172;2024-03-23T01:28:14;1.20;;;0.93;;
12848;SDS011;6493;50.928;7.172;2024-03-23T01:33:17;1.27;;;0.90;;
12848;SDS011;6493;50.928;7.172;2024-03-23T01:38:20;1.97;;;1.00;;
12848;SDS011;6493;50.928;7.172;2024-03-23T01:43:24;1.33;;;1.03;;
12848;SDS011;6493;50.928;7.172;2024-03-23T01:48:27;1.97;;;1.17;;
12848;SDS011;6493;50.928;7.172;2024-03-23T01:53:30;1.10;;;1.00;;
12848;SDS011;6493;50.928;7.172;2024-03-23T01:58:34;1.10;;;0.90;;
12848;SDS011;6493;50.928;7.172;2024-03-23T02:03:37;1.57;;;1.00;;
12848;SDS011;6493;50.928;7.172;2024-03-23T02:08:40;1.30;;;1.13;;
12848;SDS011;6493;50.928;7.172;2024-03-23T02:13:45;2.13;;;1.20;;
12848;SDS011;6493;50.928;7.172;2024-03-23T02:18:48;1.67;;;0.90;;
12848;SDS011;6493;50.928;7.172;2024-03-23T02:23:52;1.00;;;0.70;;
12848;SDS011;6493;50.928;7.172;2024-03-23T02:28:55;0.90;;;0.80;;
12848;SDS011;6493;50.928;7.172;2024-03-23T02:33:57;1.83;;;1.07;;
12848;SDS011;6493;50.928;7.172;2024-03-23T02:39:02;1.90;;;0.77;;
12848;SDS011;6493;50.928;7.172;2024-03-23T02:44:04;0.83;;;0.57;;
12848;SDS011;6493;50.928;7.172;2024-03-23T02:49:07;2.97;;;0.50;;
12848;SDS011;6493;50.928;7.172;2024-03-23T02:54:12;1.07;;;0.60;;
12848;SDS011;6493;50.928;7.172;2024-03-23T02:59:14;1.27;;;0.60;;
12848;SDS011;6493;50.928;7.172;2024-03-23T03:04:17;1.73;;;0.70;;
12848;SDS011;6493;50.928;7.172;2024-03-23T03:09:21;0.93;;;0.60;;
12848;SDS011;6493;50.928;7.172;2024-03-23T03:14:24;1.10;;;0.60;;
12848;SDS011;6493;50.928;7.172;2024-03-23T03:19:27;0.40;;;0.30;;
12848;SDS011;6493;50.928;7.172;2024-03-23T03:24:31;2.13;;;0.70;;
12848;SDS011;6493;50.928;7.172;2024-03-23T03:29:33;0.90;;;0.50;;
12848;SDS011;6493;50.928;7.172;2024-03-23T03:34:37;1.67;;;0.40;;
12848;SDS011;6493;50.928;7.172;2024-03-23T03:39:41;0.40;;;0.40;;
12848;SDS011;6493;50.928;7.172;2024-03-23T03:44:44;1.10;;;0.40;;
12848;SDS011;6493;50.928;7.172;2024-03-23T03:49:47;0.60;;;0.40;;
12848;SDS011;6493;50.928;7.172;2024-03-23T03:54:51;1.57;;;0.70;;
12848;SDS011;6493;50.928;7.172;2024-03-23T03:59:53;0.73;;;0.50;;
12848;SDS011;6493;50.928;7.172;2024-03-23T04:04:56;0.30;;;0.20;;
12848;SDS011;6493;50.928;7.172;2024-03-23T04:10:00;0.70;;;0.33;;
12848;SDS011;6493;50.928;7.172;2024-03-23T04:15:08;0.50;;;0.50;;
12848;SDS011;6493;50.928;7.172;2024-03-23T04:20:11;0.73;;;0.40;;
12848;SDS011;6493;50.928;7.172;2024-03-23T04:25:19;0.83;;;0.50;;
12848;SDS011;6493;50.928;7.172;2024-03-23T04:30:21;0.93;;;0.40;;
12848;SDS011;6493;50.928;7.172;2024-03-23T04:35:26;0.87;;;0.50;;
12848;SDS011;6493;50.928;7.172;2024-03-23T04:40:30;0.60;;;0.50;;
12848;SDS011;6493;50.928;7.172;2024-03-23T04:45:32;0.93;;;0.50;;
12848;SDS011;6493;50.928;7.172;2024-03-23T04:50:35;0.90;;;0.50;;
12848;SDS011;6493;50.928;7.172;2024-03-23T04:55:40;1.43;;;0.60;;
12848;SDS011;6493;50.928;7.172;2024-03-23T05:00:42;0.73;;;0.50;;
12848;SDS011;6493;50.928;7.172;2024-03-23T05:05:45;0.93;;;0.60;;
12848;SDS011;6493;50.928;7.172;2024-03-23T05:10:49;1.00;;;0.50;;
12848;SDS011;6493;50.928;7.172;2024-03-23T05:15:52;1.63;;;0.63;;
12848;SDS011;6493;50.928;7.172;2024-03-23T05:20:55;0.93;;;0.60;;
12848;SDS011;6493;50.928;7.172;2024-03-23T05:26:00;0.50;;;0.40;;
12848;SDS011;6493;50.928;7.172;2024-03-23T05:31:03;0.80;;;0.40;;
12848;SDS011;6493;50.928;7.172;2024-03-23T05:36:06;1.47;;;0.40;;
12848;SDS011;6493;50.928;7.172;2024-03-23T05:41:13;2.03;;;0.60;;
12848;SDS011;6493;50.928;7.172;2024-03-23T05:46:16;1.70;;;0.70;;
12848;SDS011;6493;50.928;7.172;2024-03-23T05:51:19;1.03;;;0.70;;
12848;SDS011;6493;50.928;7.172;2024-03-23T05:56:23;0.80;;;0.50;;
12848;SDS011;6493;50.928;7.172;2024-03-23T06:01:26;1.57;;;0.50;;
12848;SDS011;6493;50.928;7.172;2024-03-23T06:06:30;1.20;;;0.60;;
12848;SDS011;6493;50.928;7.172;2024-03-23T06:11:34;1.10;;;0.40;;
12848;SDS011;6493;50.928;7.172;2024-03-23T06:16:36;1.07;;;0.47;;
12848;SDS011;6493;50.928;7.172;2024-03-23T06:21:42;0.77;;;0.50;;
12848;SDS011;6493;50.928;7.172;2024-03-23T06:26:47;0.83;;;0.50;;
12848;SDS011;6493;50.928;7.172;2024-03-23T06:31:52;1.40;;;0.70;;
12848;SDS011;6493;50.928;7.172;2024-03-23T06:36:56;1.20;;;0.60;;
12848;SDS011;6493;50.928;7.172;2024-03-23T06:42:00;1.53;;;0.47;;
12848;SDS011;6493;50.928;7.172;2024-03-23T06:47:03;1.03;;;0.50;;
12848;SDS011;6493;50.928;7.172;2024-03-23T06:52:06;0.40;;;0.40;;
12848;SDS011;6493;50.928;7.172;2024-03-23T06:57:10;0.77;;;0.50;;
12848;SDS011;6493;50.928;7.172;2024-03-23T07:02:13;1.90;;;0.60;;
12848;SDS011;6493;50.928;7.172;2024-03-23T07:07:16;2.23;;;0.77;;
12848;SDS011;6493;50.928;7.172;2024-03-23T07:12:21;1.83;;;0.50;;
12848;SDS011;6493;50.928;7.172;2024-03-23T07:17:24;1.30;;;0.70;;
12848;SDS011;6493;50.928;7.172;2024-03-23T07:22:27;3.10;;;0.80;;
12848;SDS011;6493;50.928;7.172;2024-03-23T07:27:31;1.20;;;0.50;;
12848;SDS011;6493;50.928;7.172;2024-03-23T07:32:40;2.73;;;0.70;;
12848;SDS011;6493;50.928;7.172;2024-03-23T07:37:44;1.93;;;0.87;;
12848;SDS011;6493;50.928;7.172;2024-03-23T07:42:49;3.10;;;0.90;;
12848;SDS011;6493;50.928;7.172;2024-03-23T07:47:52;1.83;;;0.77;;
12848;SDS011;6493;50.928;7.172;2024-03-23T07:52:55;1.57;;;0.60;;
12848;SDS011;6493;50.928;7.172;2024-03-23T07:57:59;2.67;;;0.77;;
12848;SDS011;6493;50.928;7.172;2024-03-23T08:03:02;2.80;;;0.83;;
12848;SDS011;6493;50.928;7.172;2024-03-23T08:21:48;2.90;;;1.40;;
12848;SDS011;6493;50.928;7.172;2024-03-23T08:26:54;2.23;;;1.37;;
12848;SDS011;6493;50.928;7.172;2024-03-23T08:31:57;2.17;;;1.30;;
12848;SDS011;6493;50.928;7.172;2024-03-23T08:37:01;3.10;;;1.20;;
12848;SDS011;6493;50.928;7.172;2024-03-23T08:42:04;2.37;;;1.20;;
12848;SDS011;6493;50.928;7.172;2024-03-23T08:47:07;2.67;;;1.20;;
12848;SDS011;6493;50.928;7.172;2024-03-23T08:52:12;2.57;;;1.03;;
12848;SDS011;6493;50.928;7.172;2024-03-23T08:57:15;3.47;;;1.10;;
12848;SDS011;6493;50.928;7.172;2024-03-23T09:02:17;1.47;;;0.90;;
12848;SDS011;6493;50.928;7.172;2024-03-23T09:07:22;2.80;;;1.47;;
12848;SDS011;6493;50.928;7.172;2024-03-23T09:12:25;4.10;;;1.37;;
12848;SDS011;6493;50.928;7.172;2024-03-23T09:17:29;2.00;;;1.30;;
12848;SDS011;6493;50.928;7.172;2024-03-23T09:22:34;2.03;;;1.30;;
12848;SDS011;6493;50.928;7.172;2024-03-23T09:27:37;3.67;;;1.70;;
12848;SDS011;6493;50.928;7.172;2024-03-23T09:32:40;4.07;;;1.53;;
12848;SDS011;6493;50.928;7.172;2024-03-23T09:37:48;3.67;;;1.40;;
12848;SDS011;6493;50.928;7.172;2024-03-23T09:42:59;3.50;;;1.50;;
12848;SDS011;6493;50.928;7.172;2024-03-23T09:48:03;2.70;;;1.40;;
12848;SDS011;6493;50.928;7.172;2024-03-23T09:53:08;1.57;;;1.00;;
12848;SDS011;6493;50.928;7.172;2024-03-23T09:58:12;1.80;;;0.83;;
12848;SDS011;6493;50.928;7.172;2024-03-23T10:08:48;2.97;;;1.13;;
12848;SDS011;6493;50.928;7.172;2024-03-23T10:13:51;0.70;;;0.60;;
12848;SDS011;6493;50.928;7.172;2024-03-23T10:18:55;1.67;;;0.80;;
12848;SDS011;6493;50.928;7.172;2024-03-23T10:24:00;1.23;;;0.67;;
12848;SDS011;6493;50.928;7.172;2024-03-23T10:34:34;1.53;;;1.17;;
12848;SDS011;6493;50.928;7.172;2024-03-23T10:39:39;1.00;;;0.70;;
12848;SDS011;6493;50.928;7.172;2024-03-23T10:44:42;2.17;;;0.90;;
12848;SDS011;6493;50.928;7.172;2024-03-23T10:49:45;1.53;;;0.70;;
12848;SDS011;6493;50.928;7.172;2024-03-23T10:59:25;1.07;;;0.70;;
12848;SDS011;6493;50.928;7.172;2024-03-23T11:04:29;0.67;;;0.40;;
12848;SDS011;6493;50.928;7.172;2024-03-23T11:09:39;0.90;;;0.60;;
12848;SDS011;6493;50.928;7.172;2024-03-23T11:14:47;1.40;;;0.80;;
12848;SDS011;6493;50.928;7.172;2024-03-23T11:19:53;0.97;;;0.53;;
12848;SDS011;6493;50.928;7.172;2024-03-23T11:24:58;0.30;;;0.30;;
12848;SDS011;6493;50.928;7.172;2024-03-23T11:30:10;1.70;;;0.40;;
12848;SDS011;6493;50.928;7.172;2024-03-23T11:35:27;0.60;;;0.30;;
12848;SDS011;6493;50.928;7.172;2024-03-23T11:40:30;0.20;;;0.20;;
12848;SDS011;6493;50.928;7.172;2024-03-23T11:45:38;0.70;;;0.40;;
12848;SDS011;6493;50.928;7.172;2024-03-23T11:50:43;0.20;;;0.20;;
12848;SDS011;6493;50.928;7.172;2024-03-23T11:55:48;0.30;;;0.10;;
12848;SDS011;6493;50.928;7.172;2024-03-23T12:00:55;0.13;;;0.10;;
12848;SDS011;6493;50.928;7.172;2024-03-23T12:05:59;0.20;;;0.17;;
12848;SDS011;6493;50.928;7.172;2024-03-23T12:11:06;0.20;;;0.20;;
12848;SDS011;6493;50.928;7.172;2024-03-23T12:22:12;0.73;;;0.30;;
12848;SDS011;6493;50.928;7.172;2024-03-23T12:27:16;1.60;;;0.13;;
12848;SDS011;6493;50.928;7.172;2024-03-23T12:32:18;0.30;;;0.20;;
12848;SDS011;6493;50.928;7.172;2024-03-23T12:37:23;0.30;;;0.30;;
12848;SDS011;6493;50.928;7.172;2024-03-23T12:42:26;0.53;;;0.30;;
12848;SDS011;6493;50.928;7.172;2024-03-23T12:47:31;0.60;;;0.40;;
12848;SDS011;6493;50.928;7.172;2024-03-23T12:52:35;0.97;;;0.40;;
12848;SDS011;6493;50.928;7.172;2024-03-23T12:57:38;0.53;;;0.40;;
12848;SDS011;6493;50.928;7.172;2024-03-23T13:02:41;0.37;;;0.20;;
12848;SDS011;6493;50.928;7.172;2024-03-23T13:07:48;0.20;;;0.20;;
12848;SDS011;6493;50.928;7.172;2024-03-23T13:12:51;0.30;;;0.20;;
12848;SDS011;6493;50.928;7.172;2024-03-23T13:17:54;0.20;;;0.20;;
12848;SDS011;6493;50.928;7.172;2024-03-23T13:22:59;0.53;;;0.20;;
12848;SDS011;6493;50.928;7.172;2024-03-23T13:28:03;1.47;;;0.20;;
12848;SDS011;6493;50.928;7.172;2024-03-23T13:33:06;0.30;;;0.30;;
12848;SDS011;6493;50.928;7.172;2024-03-23T13:38:12;0.20;;;0.10;;
12848;SDS011;6493;50.928;7.172;2024-03-23T13:43:15;0.50;;;0.30;;
12848;SDS011;6493;50.928;7.172;2024-03-23T13:48:19;1.03;;;0.40;;
12848;SDS011;6493;50.928;7.172;2024-03-23T13:53:24;0.40;;;0.20;;
12848;SDS011;6493;50.928;7.172;2024-03-23T13:58:27;0.20;;;0.20;;
12848;SDS011;6493;50.928;7.172;2024-03-23T14:03:29;0.43;;;0.43;;
12848;SDS011;6493;50.928;7.172;2024-03-23T14:08:33;0.40;;;0.30;;
12848;SDS011;6493;50.928;7.172;2024-03-23T14:13:37;0.50;;;0.40;;
12848;SDS011;6493;50.928;7.172;2024-03-23T14:18:41;1.03;;;0.40;;
12848;SDS011;6493;50.928;7.172;2024-03-23T14:23:45;0.40;;;0.30;;
12848;SDS011;6493;50.928;7.172;2024-03-23T14:28:48;0.60;;;0.33;;
12848;SDS011;6493;50.928;7.172;2024-03-23T14:33:51;0.60;;;0.37;;
12848;SDS011;6493;50.928;7.172;2024-03-23T14:38:55;1.07;;;0.40;;
12848;SDS011;6493;50.928;7.172;2024-03-23T14:43:58;0.30;;;0.30;;
12848;SDS011;6493;50.928;7.172;2024-03-23T14:49:01;0.80;;;0.30;;
12848;SDS011;6493;50.928;7.172;2024-03-23T14:54:05;0.23;;;0.23;;
12848;SDS011;6493;50.928;7.172;2024-03-23T14:59:07;0.50;;;0.40;;
12848;SDS011;6493;50.928;7.172;2024-03-23T15:04:10;0.43;;;0.40;;
12848;SDS011;6493;50.928;7.172;2024-03-23T15:09:14;0.60;;;0.37;;
12848;SDS011;6493;50.928;7.172;2024-03-23T15:14:17;0.80;;;0.43;;
12848;SDS011;6493;50.928;7.172;2024-03-23T15:19:21;0.83;;;0.47;;
12848;SDS011;6493;50.928;7.172;2024-03-23T15:24:25;0.73;;;0.30;;
12848;SDS011;6493;50.928;7.172;2024-03-23T15:29:28;1.10;;;0.37;;
12848;SDS011;6493;50.928;7.172;2024-03-23T15:34:30;0.50;;;0.40;;
12848;SDS011;6493;50.928;7.172;2024-03-23T15:39:34;1.20;;;0.80;;
12848;SDS011;6493;50.928;7.172;2024-03-23T15:44:37;2.07;;;1.30;;
12848;SDS011;6493;50.928;7.172;2024-03-23T15:49:39;1.30;;;0.80;;
12848;SDS011;6493;50.928;7.172;2024-03-23T15:54:44;0.90;;;0.73;;
12848;SDS011;6493;50.928;7.172;2024-03-23T15:59:47;1.43;;;0.73;;
12848;SDS011;6493;50.928;7.172;2024-03-23T16:04:50;1.07;;;0.57;;
12848;SDS011;6493;50.928;7.172;2024-03-23T16:09:54;0.43;;;0.40;;
12848;SDS011;6493;50.928;7.172;2024-03-23T16:14:57;0.60;;;0.50;;
12848;SDS011;6493;50.928;7.172;2024-03-23T16:20:00;1.07;;;0.40;;
12848;SDS011;6493;50.928;7.172;2024-03-23T16:25:06;0.60;;;0.50;;
12848;SDS011;6493;50.928;7.172;2024-03-23T16:30:10;1.93;;;0.70;;
12848;SDS011;6493;50.928;7.172;2024-03-23T16:35:14;1.97;;;0.60;;
12848;SDS011;6493;50.928;7.172;2024-03-23T16:40:19;1.03;;;0.77;;
12848;SDS011;6493;50.928;7.172;2024-03-23T16:45:21;0.80;;;0.70;;
12848;SDS011;6493;50.928;7.172;2024-03-23T16:50:24;2.13;;;0.73;;
12848;SDS011;6493;50.928;7.172;2024-03-23T16:55:28;1.80;;;0.80;;
12848;SDS011;6493;50.928;7.172;2024-03-23T17:00:31;2.03;;;1.10;;
12848;SDS011;6493;50.928;7.172;2024-03-23T17:05:37;2.17;;;1.70;;
12848;SDS011;6493;50.928;7.172;2024-03-23T17:10:41;1.40;;;1.30;;
12848;SDS011;6493;50.928;7.172;2024-03-23T17:15:44;2.97;;;1.60;;
12848;SDS011;6493;50.928;7.172;2024-03-23T17:20:47;1.47;;;0.90;;
12848;SDS011;6493;50.928;7.172;2024-03-23T17:25:51;0.87;;;0.80;;
12848;SDS011;6493;50.928;7.172;2024-03-23T17:30:54;1.10;;;0.97;;
12848;SDS011;6493;50.928;7.172;2024-03-23T17:35:57;1.03;;;0.73;;
12848;SDS011;6493;50.928;7.172;2024-03-23T17:41:05;0.90;;;0.90;;
12848;SDS011;6493;50.928;7.172;2024-03-23T17:46:11;0.80;;;0.80;;
12848;SDS011;6493;50.928;7.172;2024-03-23T17:51:14;0.57;;;0.57;;
12848;SDS011;6493;50.928;7.172;2024-03-23T17:56:20;0.87;;;0.60;;
12848;SDS011;6493;50.928;7.172;2024-03-23T18:01:23;0.93;;;0.60;;
12848;SDS011;6493;50.928;7.172;2024-03-23T18:06:25;0.57;;;0.57;;
12848;SDS011;6493;50.928;7.172;2024-03-23T18:11:29;0.80;;;0.70;;
12848;SDS011;6493;50.928;7.172;2024-03-23T18:16:32;0.53;;;0.50;;
12848;SDS011;6493;50.928;7.172;2024-03-23T18:21:34;0.30;;;0.30;;
12848;SDS011;6493;50.928;7.172;2024-03-23T18:26:38;0.70;;;0.40;;
12848;SDS011;6493;50.928;7.172;2024-03-23T18:31:41;0.53;;;0.47;;
12848;SDS011;6493;50.928;7.172;2024-03-23T18:36:45;0.30;;;0.30;;
12848;SDS011;6493;50.928;7.172;2024-03-23T18:41:49;0.30;;;0.30;;
12848;SDS011;6493;50.928;7.172;2024-03-23T18:46:51;0.27;;;0.27;;
12848;SDS011;6493;50.928;7.172;2024-03-23T18:51:54;0.40;;;0.40;;
12848;SDS011;6493;50.928;7.172;2024-03-23T18:56:59;0.50;;;0.40;;
12848;SDS011;6493;50.928;7.172;2024-03-23T19:02:02;0.57;;;0.37;;
12848;SDS011;6493;50.928;7.172;2024-03-23T19:07:05;0.80;;;0.30;;
12848;SDS011;6493;50.928;7.172;2024-03-23T19:12:09;1.03;;;0.57;;
12848;SDS011;6493;50.928;7.172;2024-03-23T19:17:12;0.53;;;0.50;;
12848;SDS011;6493;50.928;7.172;2024-03-23T19:22:14;0.43;;;0.30;;
12848;SDS011;6493;50.928;7.172;2024-03-23T19:27:19;0.30;;;0.30;;
12848;SDS011;6493;50.928;7.172;2024-03-23T19:32:23;0.50;;;0.30;;
12848;SDS011;6493;50.928;7.172;2024-03-23T19:37:27;0.43;;;0.40;;
12848;SDS011;6493;50.928;7.172;2024-03-23T19:42:31;0.40;;;0.40;;
12848;SDS011;6493;50.928;7.172;2024-03-23T19:47:34;0.40;;;0.37;;
12848;SDS011;6493;50.928;7.172;2024-03-23T19:52:36;0.30;;;0.30;;
12848;SDS011;6493;50.928;7.172;2024-03-23T19:57:40;0.40;;;0.40;;
12848;SDS011;6493;50.928;7.172;2024-03-23T20:02:44;0.70;;;0.50;;
12848;SDS011;6493;50.928;7.172;2024-03-23T20:07:47;0.67;;;0.40;;
12848;SDS011;6493;50.928;7.172;2024-03-23T20:12:51;0.90;;;0.80;;
12848;SDS011;6493;50.928;7.172;2024-03-23T20:17:53;0.70;;;0.70;;
12848;SDS011;6493;50.928;7.172;2024-03-23T20:22:56;0.80;;;0.80;;
12848;SDS011;6493;50.928;7.172;2024-03-23T20:28:00;0.80;;;0.80;;
12848;SDS011;6493;50.928;7.172;2024-03-23T20:33:04;1.83;;;1.20;;
12848;SDS011;6493;50.928;7.172;2024-03-23T20:38:06;1.03;;;0.90;;
12848;SDS011;6493;50.928;7.172;2024-03-23T20:43:10;1.87;;;0.80;;
12848;SDS011;6493;50.928;7.172;2024-03-23T20:48:13;1.00;;;0.83;;
12848;SDS011;6493;50.928;7.172;2024-03-23T20:53:16;1.23;;;1.00;;
12848;SDS011;6493;50.928;7.172;2024-03-23T20:58:20;0.80;;;0.80;;
12848;SDS011;6493;50.928;7.172;2024-03-23T21:03:24;0.80;;;0.80;;
12848;SDS011;6493;50.928;7.172;2024-03-23T21:08:27;0.77;;;0.60;;
12848;SDS011;6493;50.928;7.172;2024-03-23T21:13:31;0.70;;;0.70;;
12848;SDS011;6493;50.928;7.172;2024-03-23T21:18:34;0.93;;;0.60;;
12848;SDS011;6493;50.928;7.172;2024-03-23T21:23:37;1.10;;;0.40;;
12848;SDS011;6493;50.928;7.172;2024-03-23T21:28:41;0.80;;;0.50;;
12848;SDS011;6493;50.928;7.172;2024-03-23T21:33:45;0.77;;;0.73;;
12848;SDS011;6493;50.928;7.172;2024-03-23T21:38:47;0.70;;;0.57;;
12848;SDS011;6493;50.928;7.172;2024-03-23T21:43:51;0.60;;;0.43;;
12848;SDS011;6493;50.928;7.172;2024-03-23T21:48:54;0.83;;;0.50;;
12848;SDS011;6493;50.928;7.172;2024-03-23T21:53:56;0.53;;;0.40;;
12848;SDS011;6493;50.928;7.172;2024-03-23T21:59:01;0.67;;;0.43;;
12848;SDS011;6493;50.928;7.172;2024-03-23T22:04:04;1.17;;;0.50;;
12848;SDS011;6493;50.928;7.172;2024-03-23T22:09:08;1.03;;;0.60;;
12848;SDS011;6493;50.928;7.172;2024-03-23T22:14:12;0.67;;;0.40;;
12848;SDS011;6493;50.928;7.172;2024-03-23T22:19:15;0.50;;;0.40;;
12848;SDS011;6493;50.928;7.172;2024-03-23T22:24:18;0.40;;;0.40;;
12848;SDS011;6493;50.928;7.172;2024-03-23T22:29:22;0.50;;;0.43;;
12848;SDS011;6493;50.928;7.172;2024-03-23T22:34:24;1.37;;;0.53;;
12848;SDS011;6493;50.928;7.172;2024-03-23T22:39:27;2.47;;;0.80;;
12848;SDS011;6493;50.928;7.172;2024-03-23T22:44:31;1.60;;;0.60;;
12848;SDS011;6493;50.928;7.172;2024-03-23T22:49:35;1.90;;;0.70;;
12848;SDS011;6493;50.928;7.172;2024-03-23T22:54:39;1.13;;;0.60;;
12848;SDS011;6493;50.928;7.172;2024-03-23T22:59:43;0.23;;;0.20;;
12848;SDS011;6493;50.928;7.172;2024-03-23T23:04:46;0.30;;;0.30;;
12848;SDS011;6493;50.928;7.172;2024-03-23T23:09:51;0.30;;;0.30;;
12848;SDS011;6493;50.928;7.172;2024-03-23T23:14:55;0.30;;;0.30;;
12848;SDS011;6493;50.928;7.172;2024-03-23T23:19:57;0.20;;;0.20;;
12848;SDS011;6493;50.928;7.172;2024-03-23T23:25:00;0.20;;;0.20;;
12848;SDS011;6493;50.928;7.172;2024-03-23T23:30:05;0.43;;;0.43;;
12848;SDS011;6493;50.928;7.172;2024-03-23T23:35:09;0.30;;;0.30;;
12848;SDS011;6493;50.928;7.172;2024-03-23T23:40:11;0.40;;;0.40;;
12848;SDS011;6493;50.928;7.172;2024-03-23T23:45:16;0.60;;;0.50;;
12848;SDS011;6493;50.928;7.172;2024-03-23T23:50:18;0.30;;;0.30;;
12848;SDS011;6493;50.928;7.172;2024-03-23T23:55:21;0.50;;;0.40;;
